Time;durP1;ratioP1;P1;durP2;ratioP2;P2;SDS_P1;SDS_P2;PMS_P1;PMS_P2;Temp;Humidity;BMP_temperature;BMP_pressure;BME280_temperature;BME280_humidity;BME280_pressure;Samples;Min_cycle;Max_cycle;Signal;HPM_P1;HPM_P2
2022/05/29 00:00:10;;;;;;;12.60;5.07;;;;;;;19.53;100.00;98919.56;5093566;28;20206;-58
2022/05/29 00:02:38;;;;;;;12.45;5.32;;;;;;;19.54;100.00;98913.34;5093146;28;20274;-58
2022/05/29 00:05:07;;;;;;;8.85;5.13;;;;;;;19.43;100.00;98897.47;5093552;28;20211;-58
2022/05/29 00:07:35;;;;;;;9.85;5.45;;;;;;;19.47;100.00;98891.03;5093492;28;20203;-56
2022/05/29 00:10:05;;;;;;;10.27;5.45;;;;;;;19.41;100.00;98873.06;5093631;28;20205;-56
2022/05/29 00:12:32;;;;;;;10.68;5.57;;;;;;;19.48;100.00;98899.78;5093006;28;20227;-56
2022/05/29 00:14:59;;;;;;;12.18;6.28;;;;;;;19.51;100.00;98889.91;5093343;28;20202;-58
2022/05/29 00:17:26;;;;;;;17.50;6.15;;;;;;;19.50;100.00;98880.31;5093300;28;20202;-58
2022/05/29 00:19:55;;;;;;;10.98;6.43;;;;;;;19.48;100.00;98870.81;5093509;28;20197;-56
2022/05/29 00:22:23;;;;;;;10.57;6.25;;;;;;;19.47;100.00;98850.72;5093510;28;20192;-58
2022/05/29 00:24:51;;;;;;;7.60;6.10;;;;;;;19.52;100.00;98851.25;5093098;28;20194;-58
2022/05/29 00:27:18;;;;;;;9.60;6.22;;;;;;;19.56;100.00;98857.94;5093070;28;20198;-58
2022/05/29 00:29:46;;;;;;;14.85;5.68;;;;;;;19.53;100.00;98847.63;5093172;28;20556;-59
2022/05/29 00:32:13;;;;;;;17.60;7.43;;;;;;;19.40;100.00;98831.94;5093014;28;20218;-59
2022/05/29 00:34:40;;;;;;;10.32;6.05;;;;;;;19.43;100.00;98834.31;5092995;28;20727;-58
2022/05/29 00:37:11;;;;;;;7.63;6.43;;;;;;;19.36;100.00;98830.47;5092893;28;20191;-57
2022/05/29 00:39:38;;;;;;;12.45;5.75;;;;;;;19.38;100.00;98836.47;5093257;28;20217;-57
2022/05/29 00:42:07;;;;;;;12.05;5.18;;;;;;;19.28;100.00;98821.50;5092786;28;20192;-57
2022/05/29 00:44:35;;;;;;;11.45;5.93;;;;;;;19.40;100.00;98831.94;5092494;28;20222;-57
2022/05/29 00:47:12;;;;;;;9.23;5.90;;;;;;;19.42;100.00;98842.31;5092591;28;20817;-57
2022/05/29 00:49:40;;;;;;;11.65;6.40;;;;;;;19.36;100.00;98841.00;5092657;28;20675;-56
2022/05/29 00:52:13;;;;;;;10.50;5.68;;;;;;;19.32;100.00;98828.19;5092609;28;20219;-56
2022/05/29 00:54:42;;;;;;;7.57;5.80;;;;;;;19.33;100.00;98814.91;5092719;28;20200;-58
2022/05/29 00:57:11;;;;;;;11.90;5.90;;;;;;;19.36;100.00;98801.53;5092667;28;20645;-58
2022/05/29 00:59:39;;;;;;;8.10;5.35;;;;;;;19.25;100.00;98785.72;5092818;28;20195;-58
2022/05/29 01:02:06;;;;;;;8.90;6.05;;;;;;;19.26;100.00;98782.13;5092382;28;20636;-58
2022/05/29 01:04:34;;;;;;;10.60;5.47;;;;;;;19.27;100.00;98783.81;5092206;28;20209;-58
2022/05/29 01:07:03;;;;;;;7.45;5.22;;;;;;;19.25;100.00;98777.84;5092364;28;20192;-60
2022/05/29 01:09:32;;;;;;;10.15;5.75;;;;;;;19.15;100.00;98784.75;5091403;28;20195;-59
2022/05/29 01:12:05;;;;;;;8.60;5.43;;;;;;;19.21;100.00;98789.53;5092195;28;20233;-59
2022/05/29 01:14:46;;;;;;;11.38;5.00;;;;;;;19.14;100.00;98785.69;5092133;28;20549;-59
2022/05/29 01:17:23;;;;;;;11.15;5.68;;;;;;;19.20;100.00;98801.00;5092067;28;20663;-59
2022/05/29 01:20:34;;;;;;;10.32;5.47;;;;;;;19.21;100.00;98800.88;5092160;28;20201;-59
2022/05/29 01:23:29;;;;;;;8.80;5.38;;;;;;;19.36;100.00;98813.84;5039275;28;20583;-59
2022/05/29 01:26:22;;;;;;;11.55;5.63;;;;;;;19.25;100.00;98826.97;5092125;28;20198;-57
2022/05/29 01:28:54;;;;;;;9.48;5.32;;;;;;;19.16;100.00;98834.63;5091984;28;20199;-58
2022/05/29 01:31:34;;;;;;;9.27;5.50;;;;;;;19.11;100.00;98865.69;5091900;28;20191;-58
2022/05/29 01:34:11;;;;;;;10.07;5.68;;;;;;;19.07;100.00;98869.50;5091736;28;20233;-58
2022/05/29 01:36:49;;;;;;;14.43;5.82;;;;;;;19.06;100.00;98877.50;5091816;28;20190;-58
2022/05/29 01:39:22;;;;;;;7.72;5.28;;;;;;;19.06;100.00;98885.38;5091849;28;20580;-56
2022/05/29 01:41:56;;;;;;;11.27;5.13;;;;;;;19.08;100.00;98879.03;5091578;28;20698;-56
2022/05/29 01:44:32;;;;;;;6.75;4.53;;;;;;;19.09;100.00;98878.09;5091845;28;20200;-58
2022/05/29 01:47:13;;;;;;;8.88;5.28;;;;;;;18.97;100.00;98863.22;5091829;28;20226;-58
2022/05/29 01:49:45;;;;;;;13.52;5.80;;;;;;;19.09;100.00;98874.63;5091594;28;20195;-56
2022/05/29 01:52:16;;;;;;;12.23;6.00;;;;;;;19.00;100.00;98870.03;5091366;28;20225;-57
2022/05/29 01:54:49;;;;;;;10.20;5.72;;;;;;;19.16;100.00;98891.66;5091291;28;20661;-56
2022/05/29 01:57:19;;;;;;;11.15;6.00;;;;;;;19.19;100.00;98912.44;5090542;28;20195;-56
2022/05/29 01:59:51;;;;;;;12.95;6.25;;;;;;;19.17;100.00;98895.97;5091281;28;20203;-56
2022/05/29 02:02:23;;;;;;;12.43;5.60;;;;;;;19.06;100.00;98838.88;5091174;28;20198;-55
2022/05/29 02:04:55;;;;;;;14.90;5.63;;;;;;;19.23;100.00;98825.28;5091092;28;20576;-56
2022/05/29 02:10:16;;;;;;;11.38;6.03;;;;;;;19.12;100.00;98784.97;5091242;28;20194;-56
2022/05/29 02:12:49;;;;;;;11.32;5.85;;;;;;;19.14;100.00;98814.63;5090986;28;20717;-55
2022/05/29 02:15:23;;;;;;;9.60;5.43;;;;;;;19.12;100.00;98872.63;5090930;28;20203;-55
2022/05/29 02:17:57;;;;;;;14.77;6.18;;;;;;;19.01;100.00;98887.50;5090918;28;20222;-55
2022/05/29 02:20:28;;;;;;;15.13;5.53;;;;;;;18.95;100.00;98914.28;5090971;28;20274;-56
2022/05/29 02:23:01;;;;;;;7.20;5.18;;;;;;;18.97;100.00;98936.00;5091061;28;20236;-56
2022/05/29 02:25:30;;;;;;;17.38;5.65;;;;;;;18.99;100.00;98936.75;5091134;28;20234;-56
2022/05/29 02:28:03;;;;;;;9.40;5.05;;;;;;;18.90;100.00;98913.75;5091241;28;20196;-56
2022/05/29 02:30:39;;;;;;;7.82;4.95;;;;;;;18.91;100.00;98897.03;5090918;28;20597;-55
2022/05/29 02:33:13;;;;;;;12.73;5.18;;;;;;;18.96;100.00;98879.94;5090442;28;20214;-56
2022/05/29 02:35:48;;;;;;;9.75;5.97;;;;;;;18.91;100.00;98860.22;5089444;28;20195;-56
2022/05/29 02:38:23;;;;;;;9.75;6.03;;;;;;;18.73;100.00;98851.88;5089084;28;20666;-57
2022/05/29 02:40:57;;;;;;;11.98;6.68;;;;;;;18.74;100.00;98848.28;5087388;28;20596;-57
2022/05/29 02:43:33;;;;;;;11.32;5.88;;;;;;;18.81;100.00;98874.03;5086425;28;20197;-57
2022/05/29 02:46:10;;;;;;;15.18;6.88;;;;;;;18.92;100.00;98893.44;5088985;28;20233;-57
2022/05/29 02:48:45;;;;;;;10.30;5.57;;;;;;;18.96;100.00;98890.47;5088268;28;20726;-58
2022/05/29 02:51:17;;;;;;;12.32;6.10;;;;;;;18.97;100.00;98897.41;5077089;28;20250;-55
2022/05/29 02:53:46;;;;;;;11.07;6.28;;;;;;;19.00;100.00;98901.59;5088844;28;20229;-55
2022/05/29 02:56:13;;;;;;;11.60;6.00;;;;;;;18.75;100.00;98887.59;5089491;28;20683;-54
2022/05/29 02:58:42;;;;;;;13.93;6.57;;;;;;;18.67;100.00;98932.00;5076183;28;20230;-54
2022/05/29 03:01:20;;;;;;;11.70;6.45;;;;;;;18.58;100.00;98942.34;5087684;28;20617;-54
2022/05/29 03:03:59;;;;;;;10.13;6.55;;;;;;;18.59;100.00;98939.63;5088880;28;20812;-56
2022/05/29 03:06:43;;;;;;;13.40;6.80;;;;;;;18.68;100.00;98943.38;5089325;28;20227;-54
2022/05/29 03:09:20;;;;;;;11.68;6.47;;;;;;;18.71;100.00;98941.38;5088052;28;20264;-54
2022/05/29 03:11:48;;;;;;;15.52;6.15;;;;;;;18.78;100.00;98942.59;5088336;28;20214;-54
2022/05/29 03:14:29;;;;;;;10.38;5.30;;;;;;;18.95;100.00;98936.16;5085752;28;20318;-54
2022/05/29 03:17:12;;;;;;;11.93;6.32;;;;;;;18.95;100.00;98917.75;5084424;28;20713;-55
2022/05/29 03:19:49;;;;;;;10.73;5.97;;;;;;;18.77;100.00;98885.72;5085885;28;20303;-54
2022/05/29 03:22:26;;;;;;;14.70;5.78;;;;;;;18.85;100.00;98900.91;5085678;28;20221;-54
2022/05/29 03:25:00;;;;;;;13.93;5.73;;;;;;;18.75;100.00;98892.88;5086635;28;20201;-56
2022/05/29 03:27:32;;;;;;;10.63;5.68;;;;;;;18.69;100.00;98887.22;5087173;28;20278;-55
2022/05/29 03:30:06;;;;;;;8.63;5.50;;;;;;;18.72;100.00;98881.75;5086341;28;20198;-56
2022/05/29 03:32:36;;;;;;;10.27;5.53;;;;;;;18.88;100.00;98891.97;5088462;28;20191;-56
2022/05/29 03:35:18;;;;;;;12.02;6.45;;;;;;;18.91;100.00;98865.47;5089559;28;20663;-54
2022/05/29 03:37:45;;;;;;;9.90;6.28;;;;;;;18.80;100.00;98843.44;5089855;28;20217;-55
2022/05/29 03:40:13;;;;;;;15.32;6.47;;;;;;;18.80;100.00;98838.16;5089522;28;20199;-55
2022/05/29 03:42:40;;;;;;;9.98;6.20;;;;;;;18.82;100.00;98846.78;5089996;28;20231;-55
2022/05/29 03:45:08;;;;;;;9.07;6.40;;;;;;;18.91;100.00;98862.84;5090179;28;20683;-54
2022/05/29 03:47:37;;;;;;;12.70;6.65;;;;;;;18.85;100.00;98858.84;5090013;28;20652;-55
2022/05/29 03:50:05;;;;;;;11.57;6.60;;;;;;;18.88;100.00;98823.59;5089319;28;20207;-55
2022/05/29 03:52:34;;;;;;;11.65;7.25;;;;;;;18.54;100.00;98735.84;5089087;28;20279;-55
2022/05/29 03:55:03;;;;;;;14.73;6.53;;;;;;;18.91;100.00;98786.56;5089328;28;20205;-57
2022/05/29 03:57:29;;;;;;;11.90;6.85;;;;;;;18.96;100.00;98792.34;5089196;28;20191;-56
2022/05/29 03:59:56;;;;;;;9.75;6.35;;;;;;;19.06;100.00;98801.22;5088337;28;20647;-55
2022/05/29 04:02:24;;;;;;;11.50;6.80;;;;;;;19.02;100.00;98815.53;5087155;28;20589;-56
2022/05/29 04:04:52;;;;;;;12.43;6.45;;;;;;;19.00;100.00;98817.44;5085458;28;20199;-56
2022/05/29 04:07:19;;;;;;;12.55;6.72;;;;;;;19.12;100.00;98821.78;5088720;28;20206;-55
2022/05/29 04:12:31;;;;;;;11.05;6.60;;;;;;;19.25;100.00;98811.19;5088510;28;20767;-54
2022/05/29 04:14:58;;;;;;;12.93;6.75;;;;;;;19.26;100.00;98802.34;5088533;28;20202;-54
2022/05/29 04:17:25;;;;;;;10.90;5.78;;;;;;;19.33;100.00;98809.66;5087965;28;20308;-56
2022/05/29 04:19:53;;;;;;;13.05;6.35;;;;;;;19.42;100.00;98813.38;5088457;28;20208;-56
2022/05/29 04:22:22;;;;;;;10.48;6.53;;;;;;;19.44;100.00;98809.69;5088943;28;20191;-56
2022/05/29 04:24:49;;;;;;;11.63;6.18;;;;;;;19.50;100.00;98819.78;5091755;28;20203;-54
2022/05/29 04:27:16;;;;;;;17.38;6.50;;;;;;;19.58;100.00;98814.75;5092393;28;20203;-55
2022/05/29 04:29:44;;;;;;;10.68;5.88;;;;;;;19.68;100.00;98817.53;5091798;28;20205;-54
2022/05/29 04:34:58;;;;;;;10.27;6.20;;;;;;;20.19;100.00;98840.78;5091728;28;20237;-56
2022/05/29 04:37:27;;;;;;;8.90;6.43;;;;;;;21.28;100.00;98844.22;5085565;28;20234;-56
2022/05/29 04:39:54;;;;;;;16.05;6.85;;;;;;;22.50;100.00;98836.34;5071604;28;20594;-59
2022/05/29 04:42:21;;;;;;;7.78;5.60;;;;;;;23.61;100.00;98839.47;5075327;28;20565;-57
2022/05/29 04:44:48;;;;;;;11.85;5.43;;;;;;;25.23;100.00;98826.34;5090588;28;20191;-59
2022/05/29 04:47:15;;;;;;;15.90;5.13;;;;;;;26.77;92.59;98813.88;5091617;28;20206;-58
2022/05/29 04:49:42;;;;;;;10.48;5.30;;;;;;;28.03;85.36;98828.47;5084221;28;20310;-57
2022/05/29 04:52:11;;;;;;;10.85;5.38;;;;;;;28.01;84.88;98835.00;5081120;28;20290;-59
2022/05/29 04:54:39;;;;;;;9.20;5.78;;;;;;;26.95;89.82;98837.75;5092763;28;20296;-59
2022/05/29 04:57:07;;;;;;;10.32;4.97;;;;;;;25.98;95.16;98835.50;5090534;28;20205;-57
2022/05/29 04:59:34;;;;;;;11.98;5.13;;;;;;;25.24;96.33;98843.13;5091600;28;20249;-59
2022/05/29 05:02:01;;;;;;;14.65;6.00;;;;;;;24.46;100.00;98840.16;5090082;28;20199;-58
2022/05/29 05:04:29;;;;;;;9.18;5.30;;;;;;;23.79;100.00;98849.22;5091033;28;20270;-59
2022/05/29 05:06:58;;;;;;;8.48;5.65;;;;;;;23.23;100.00;98850.94;5088641;28;20752;-57
2022/05/29 05:09:27;;;;;;;9.32;5.88;;;;;;;22.83;100.00;98841.31;5091548;28;20195;-58
2022/05/29 05:11:55;;;;;;;12.90;6.40;;;;;;;22.62;100.00;98845.84;5088073;28;20221;-57
2022/05/29 05:14:23;;;;;;;10.43;5.65;;;;;;;22.40;100.00;98845.09;5091569;28;20695;-59
2022/05/29 05:16:50;;;;;;;6.85;5.28;;;;;;;22.49;100.00;98845.25;5090875;28;20515;-60
2022/05/29 05:19:17;;;;;;;7.47;5.05;;;;;;;23.21;100.00;98851.09;5091287;28;20671;-59
2022/05/29 05:21:44;;;;;;;6.65;5.90;;;;;;;23.41;100.00;98850.09;5082404;28;20204;-59
2022/05/29 05:24:12;;;;;;;10.63;5.50;;;;;;;23.58;100.00;98861.81;5078355;28;20195;-59
2022/05/29 05:26:40;;;;;;;13.98;5.40;;;;;;;23.85;100.00;98856.56;5070831;28;20584;-59
2022/05/29 05:29:08;;;;;;;8.85;6.13;;;;;;;24.50;100.00;98838.88;5070560;28;20295;-59
2022/05/29 05:31:35;;;;;;;8.68;5.32;;;;;;;24.83;98.74;98833.94;5069937;28;20301;-59
2022/05/29 05:34:02;;;;;;;11.98;5.78;;;;;;;24.36;99.68;98823.47;5088575;28;20301;-60
2022/05/29 05:36:29;;;;;;;7.75;5.50;;;;;;;23.82;100.00;98827.69;5090695;28;20195;-59
2022/05/29 05:38:56;;;;;;;13.38;5.97;;;;;;;23.72;100.00;98839.31;5090625;28;20290;-59
2022/05/29 05:41:23;;;;;;;10.93;5.60;;;;;;;23.58;100.00;98835.31;5090296;28;20191;-59
2022/05/29 05:43:51;;;;;;;7.53;5.20;;;;;;;24.01;100.00;98842.72;5078313;28;20199;-59
2022/05/29 05:46:19;;;;;;;9.43;5.75;;;;;;;23.75;100.00;98839.88;5080609;28;20220;-65
2022/05/29 05:48:46;;;;;;;13.55;6.50;;;;;;;23.52;100.00;98847.31;5070429;28;20219;-59
2022/05/29 05:51:14;;;;;;;10.18;5.85;;;;;;;23.16;100.00;98840.06;5070380;28;20208;-59
2022/05/29 05:53:42;;;;;;;7.97;4.90;;;;;;;23.04;100.00;98844.66;5070256;28;20224;-59
2022/05/29 05:56:12;;;;;;;9.50;6.32;;;;;;;23.09;100.00;98846.91;5070103;28;20200;-59
2022/05/29 05:58:39;;;;;;;9.27;5.65;;;;;;;23.10;100.00;98838.81;5070192;28;20203;-59
2022/05/29 06:01:10;;;;;;;8.68;6.20;;;;;;;23.32;100.00;98837.69;5070386;28;20194;-59
2022/05/29 06:03:37;;;;;;;10.88;5.80;;;;;;;23.64;100.00;98812.72;5070376;28;20196;-59
2022/05/29 06:06:04;;;;;;;14.48;6.13;;;;;;;24.14;100.00;98837.94;5070081;28;20203;-58
2022/05/29 06:08:31;;;;;;;16.05;6.40;;;;;;;24.35;100.00;98842.19;5070047;28;20196;-58
2022/05/29 06:10:59;;;;;;;11.60;6.03;;;;;;;24.76;100.00;98843.47;5072052;28;20207;-60
2022/05/29 06:13:26;;;;;;;9.23;5.55;;;;;;;24.92;100.00;98843.63;5090164;28;20586;-60
2022/05/29 06:15:53;;;;;;;10.20;6.30;;;;;;;25.10;100.00;98846.31;5089364;28;20203;-58
2022/05/29 06:18:22;;;;;;;14.15;5.75;;;;;;;24.78;100.00;98846.81;5088080;28;20590;-59
2022/05/29 06:20:58;;;;;;;8.77;6.70;;;;;;;24.17;100.00;98842.91;5088977;28;20199;-57
2022/05/29 06:23:24;;;;;;;11.38;5.43;;;;;;;23.82;100.00;98832.16;5090090;28;20578;-57
2022/05/29 06:25:51;;;;;;;11.93;5.50;;;;;;;23.36;100.00;98827.66;5087572;28;20286;-59
2022/05/29 06:28:18;;;;;;;13.15;6.15;;;;;;;23.08;100.00;98826.69;5090820;28;20198;-59
2022/05/29 06:30:45;;;;;;;9.43;6.57;;;;;;;22.90;100.00;98834.50;5090642;28;20195;-60
2022/05/29 06:33:13;;;;;;;10.35;5.65;;;;;;;23.01;100.00;98815.84;5090838;28;20272;-59
2022/05/29 06:35:41;;;;;;;10.77;6.35;;;;;;;22.95;100.00;98813.75;5090704;28;20205;-59
2022/05/29 06:38:08;;;;;;;9.77;5.78;;;;;;;22.92;100.00;98821.94;5090740;28;20625;-60
2022/05/29 06:40:35;;;;;;;8.00;5.82;;;;;;;22.73;100.00;98811.31;5090911;28;20202;-61
2022/05/29 06:43:02;;;;;;;14.70;6.57;;;;;;;22.73;100.00;98817.47;5090180;28;20332;-61
2022/05/29 06:45:29;;;;;;;15.25;7.15;;;;;;;22.79;100.00;98818.75;5089761;28;20259;-59
2022/05/29 06:47:56;;;;;;;8.88;6.40;;;;;;;22.91;100.00;98830.06;5090335;28;20199;-59
2022/05/29 06:50:23;;;;;;;10.23;6.45;;;;;;;22.99;100.00;98838.97;5090260;28;20195;-59
2022/05/29 06:52:51;;;;;;;11.00;6.13;;;;;;;23.05;100.00;98842.84;5090148;28;20287;-58
2022/05/29 06:55:21;;;;;;;12.68;5.80;;;;;;;23.15;100.00;98841.88;5090592;28;20578;-59
2022/05/29 06:57:48;;;;;;;13.75;5.35;;;;;;;23.27;100.00;98834.63;5090105;28;20241;-59
2022/05/29 07:08:35;;;;;;;12.52;5.95;;;;;;;24.16;100.00;98845.72;5090356;28;20693;-59
2022/05/29 07:11:07;;;;;;;15.65;6.63;;;;;;;24.46;100.00;98836.69;5090310;28;20274;-59
2022/05/29 07:13:35;;;;;;;13.30;7.10;;;;;;;24.58;100.00;98832.84;5089946;28;20671;-58
2022/05/29 07:16:02;;;;;;;16.00;7.25;;;;;;;24.66;100.00;98842.69;5090318;28;20707;-59
2022/05/29 07:18:30;;;;;;;10.88;6.22;;;;;;;24.84;100.00;98830.25;5088875;28;20613;-59
2022/05/29 07:21:00;;;;;;;13.23;5.95;;;;;;;24.82;100.00;98832.25;5090049;28;20202;-59
2022/05/29 07:23:27;;;;;;;7.43;6.03;;;;;;;24.71;100.00;98833.31;5090001;28;20206;-60
2022/05/29 07:25:55;;;;;;;6.32;5.72;;;;;;;24.81;100.00;98833.25;5089493;28;20195;-60
2022/05/29 07:28:22;;;;;;;9.35;5.93;;;;;;;24.92;100.00;98827.72;5090064;28;20256;-59
2022/05/29 07:30:50;;;;;;;10.45;6.22;;;;;;;25.19;100.00;98824.13;5090118;28;20586;-60
2022/05/29 07:33:17;;;;;;;12.52;6.65;;;;;;;26.03;100.00;98830.56;5090205;28;20290;-60
2022/05/29 07:35:44;;;;;;;12.65;6.30;;;;;;;27.13;95.08;98826.91;5089748;28;20219;-59
2022/05/29 07:38:11;;;;;;;6.30;4.60;;;;;;;28.23;89.41;98825.44;5090236;28;20589;-60
2022/05/29 07:40:39;;;;;;;9.30;5.38;;;;;;;29.18;84.99;98816.22;5088215;28;20191;-60
2022/05/29 07:43:22;;;;;;;13.65;5.63;;;;;;;29.60;83.01;98808.50;5088568;28;20187;-60
2022/05/29 07:45:52;;;;;;;11.10;5.55;;;;;;;29.79;77.24;98822.38;5086953;28;20821;-59
2022/05/29 07:48:20;;;;;;;10.25;6.57;;;;;;;29.84;76.28;98793.19;5088923;28;20811;-59
2022/05/29 07:50:47;;;;;;;12.38;6.25;;;;;;;29.64;77.23;98792.09;5088222;28;20719;-60
2022/05/29 07:53:15;;;;;;;12.32;5.95;;;;;;;29.49;78.34;98816.97;5088368;28;21107;-56
2022/05/29 07:55:43;;;;;;;8.00;5.70;;;;;;;29.32;78.49;98811.94;5093032;28;20223;-62
2022/05/29 07:58:13;;;;;;;14.93;6.35;;;;;;;29.54;78.97;98814.59;5093471;28;20641;-56
2022/05/29 08:00:41;;;;;;;18.58;8.25;;;;;;;28.97;79.66;98805.34;5092669;28;20652;-56
2022/05/29 08:03:08;;;;;;;14.45;6.05;;;;;;;29.12;78.45;98804.38;5092777;28;20687;-56
2022/05/29 08:05:37;;;;;;;12.48;5.47;;;;;;;29.50;76.21;98797.22;5092001;28;20214;-57
2022/05/29 08:08:08;;;;;;;12.85;5.15;;;;;;;29.16;75.25;98810.22;5093009;28;20197;-57
2022/05/29 08:10:37;;;;;;;10.00;5.50;;;;;;;29.12;75.87;98806.25;5093957;28;20730;-59
2022/05/29 08:13:04;;;;;;;11.07;5.88;;;;;;;29.88;74.58;98800.69;5093552;28;20677;-59
2022/05/29 08:15:33;;;;;;;9.27;5.47;;;;;;;29.82;72.62;98800.56;5092973;28;20234;-59
2022/05/29 08:18:00;;;;;;;7.50;5.40;;;;;;;29.63;73.24;98801.13;5093044;28;20196;-58
2022/05/29 08:20:29;;;;;;;12.60;5.63;;;;;;;29.26;74.97;98802.78;5093107;28;20195;-58
2022/05/29 08:22:56;;;;;;;14.63;6.55;;;;;;;29.06;77.70;98785.56;5093184;28;20206;-58
2022/05/29 08:30:54;;;;;;;10.73;5.53;;;;;;;28.85;77.52;98771.06;5093038;28;20604;-58
2022/05/29 08:33:23;;;;;;;10.35;6.22;;;;;;;29.21;78.48;98773.94;5093153;28;20195;-58
2022/05/29 08:35:54;;;;;;;12.88;5.32;;;;;;;29.13;77.65;98751.78;5093339;28;20230;-57
2022/05/29 08:38:21;;;;;;;9.35;5.85;;;;;;;28.64;80.07;98778.00;5093068;28;20230;-57
2022/05/29 08:40:51;;;;;;;14.10;6.47;;;;;;;28.59;81.06;98770.53;5092839;28;20702;-59
2022/05/29 08:43:26;;;;;;;16.23;6.07;;;;;;;28.73;81.96;98761.75;5092876;28;20286;-59
2022/05/29 08:45:54;;;;;;;12.43;6.25;;;;;;;29.17;80.72;98774.47;5092579;28;20316;-58
2022/05/29 08:48:25;;;;;;;18.25;6.43;;;;;;;29.10;79.05;98768.19;5092888;28;20195;-58
2022/05/29 08:51:03;;;;;;;13.25;5.88;;;;;;;29.09;78.01;98767.34;5092762;28;20195;-58
2022/05/29 08:53:37;;;;;;;11.50;5.65;;;;;;;29.19;76.23;98756.41;5092548;28;20195;-59
2022/05/29 08:56:14;;;;;;;9.35;4.85;;;;;;;28.72;77.41;98760.09;5092984;28;20215;-59
2022/05/29 08:58:55;;;;;;;9.77;4.90;;;;;;;28.79;78.18;98757.56;5092731;28;20562;-57
2022/05/29 09:01:33;;;;;;;7.65;5.45;;;;;;;29.26;76.29;98757.34;5092470;28;20579;-57
2022/05/29 09:04:03;;;;;;;12.57;5.20;;;;;;;29.56;76.33;98761.75;5092427;28;20205;-57
2022/05/29 09:06:34;;;;;;;10.77;5.00;;;;;;;29.56;73.57;98747.56;5092115;28;20195;-57
2022/05/29 09:09:06;;;;;;;9.57;5.03;;;;;;;29.65;73.71;98748.28;5092266;28;20206;-59
2022/05/29 09:11:37;;;;;;;9.10;6.90;;;;;;;29.43;74.32;98740.16;5092323;28;20196;-59
2022/05/29 09:14:12;;;;;;;7.47;4.32;;;;;;;29.24;74.69;98744.16;5092567;28;20282;-59
2022/05/29 09:16:45;;;;;;;7.50;4.43;;;;;;;28.97;76.92;98728.72;5092003;28;20202;-59
2022/05/29 09:19:21;;;;;;;9.27;4.88;;;;;;;28.77;75.90;98723.00;5092343;28;20196;-59
2022/05/29 09:21:53;;;;;;;10.35;5.03;;;;;;;28.99;76.38;98728.53;5092034;28;20195;-59
2022/05/29 09:24:34;;;;;;;8.60;3.88;;;;;;;29.07;74.55;98715.09;5092290;28;20706;-59
2022/05/29 09:27:01;;;;;;;6.47;4.53;;;;;;;29.39;74.57;98714.78;5091919;28;20209;-59
2022/05/29 09:29:28;;;;;;;18.08;6.75;;;;;;;29.49;74.43;98704.66;5091901;28;20206;-57
2022/05/29 09:31:57;;;;;;;13.38;4.85;;;;;;;28.92;74.65;98719.56;5091895;28;20204;-57
2022/05/29 09:34:24;;;;;;;13.63;4.85;;;;;;;28.43;77.20;98717.25;5085692;28;20282;-55
2022/05/29 09:36:58;;;;;;;15.13;5.45;;;;;;;28.02;79.54;98709.44;5088021;28;20195;-56
2022/05/29 09:39:29;;;;;;;9.20;4.50;;;;;;;27.54;80.85;98707.75;5088809;28;20650;-56
2022/05/29 09:42:04;;;;;;;7.80;5.18;;;;;;;27.30;82.54;98703.34;5086103;28;20219;-56
2022/05/29 09:44:32;;;;;;;13.38;5.43;;;;;;;27.32;84.14;98698.66;5089703;28;20203;-57
2022/05/29 09:49:49;;;;;;;8.32;5.05;;;;;;;27.25;83.12;98684.38;5086220;28;20229;-57
2022/05/29 09:52:21;;;;;;;9.20;5.82;;;;;;;27.40;84.02;98671.19;5089636;28;20682;-57
2022/05/29 09:54:54;;;;;;;13.48;5.65;;;;;;;27.73;82.74;98677.25;5088196;28;20683;-57
2022/05/29 09:57:24;;;;;;;15.85;6.00;;;;;;;27.78;81.43;98674.88;5087196;28;20313;-57
2022/05/29 10:00:01;;;;;;;8.60;5.13;;;;;;;27.68;81.83;98645.75;5089206;28;20222;-58
2022/05/29 10:02:36;;;;;;;10.45;5.57;;;;;;;27.89;81.28;98647.81;5088198;28;20225;-59
2022/05/29 10:05:06;;;;;;;8.43;5.25;;;;;;;28.33;80.74;98642.72;5086930;28;20714;-57
2022/05/29 10:07:36;;;;;;;7.65;4.75;;;;;;;28.56;79.01;98633.91;5088680;28;20233;-58
2022/05/29 10:10:07;;;;;;;12.10;5.63;;;;;;;28.69;77.89;98632.25;5088989;28;20221;-57
2022/05/29 10:12:41;;;;;;;10.77;5.45;;;;;;;28.70;76.72;98625.06;5088872;28;20238;-57
2022/05/29 10:15:15;;;;;;;12.95;5.57;;;;;;;28.61;77.62;98627.00;5088967;28;20225;-58
2022/05/29 10:17:44;;;;;;;8.70;5.78;;;;;;;28.66;77.50;98616.63;5085839;28;20219;-58
2022/05/29 10:20:29;;;;;;;12.93;5.30;;;;;;;28.74;76.00;98613.03;5088868;28;20663;-57
2022/05/29 10:22:57;;;;;;;8.60;5.70;;;;;;;28.50;76.63;98612.25;5088798;28;20249;-59
2022/05/29 10:25:26;;;;;;;10.18;6.03;;;;;;;28.53;76.79;98611.06;5088769;28;20215;-59
2022/05/29 10:27:55;;;;;;;11.07;5.88;;;;;;;28.54;76.80;98615.38;5088656;28;20227;-59
2022/05/29 10:30:32;;;;;;;7.80;5.88;;;;;;;28.40;77.92;98584.13;5088946;28;20230;-59
2022/05/29 10:33:07;;;;;;;14.82;6.07;;;;;;;28.32;77.43;98608.22;5085916;28;20618;-57
2022/05/29 10:35:37;;;;;;;11.27;5.57;;;;;;;28.23;77.22;98594.09;5088242;28;20219;-58
2022/05/29 10:38:16;;;;;;;13.82;6.05;;;;;;;27.97;77.89;98607.78;5088809;28;20817;-57
2022/05/29 10:40:44;;;;;;;13.25;6.45;;;;;;;28.04;79.75;98574.03;5086520;28;20211;-58
2022/05/29 10:43:11;;;;;;;11.43;5.93;;;;;;;27.94;80.58;98575.28;5088697;28;20306;-59
2022/05/29 10:45:44;;;;;;;12.57;6.50;;;;;;;28.09;81.90;98560.19;5085684;28;20223;-58
2022/05/29 10:48:38;;;;;;;12.57;6.30;;;;;;;28.36;81.00;98540.94;5088145;28;20225;-57
2022/05/29 10:51:14;;;;;;;12.57;5.90;;;;;;;28.26;79.33;98537.72;5086748;28;20219;-57
2022/05/29 10:53:53;;;;;;;14.95;6.40;;;;;;;28.23;78.91;98561.25;5086178;28;20217;-57
2022/05/29 10:56:31;;;;;;;9.45;6.60;;;;;;;28.03;78.89;98547.53;5085824;28;20226;-57
2022/05/29 10:59:20;;;;;;;8.73;5.70;;;;;;;28.18;79.60;98530.63;5085511;28;20223;-57
2022/05/29 11:05:28;;;;;;;12.93;6.43;;;;;;;28.58;78.35;98511.72;5088343;28;20719;-57
2022/05/29 11:08:15;;;;;;;12.13;5.80;;;;;;;28.45;76.72;98517.69;5035210;28;20246;-59
2022/05/29 11:11:11;;;;;;;15.20;6.70;;;;;;;28.53;75.70;98518.44;5085842;28;20217;-57
2022/05/29 11:14:11;;;;;;;14.65;7.45;;;;;;;28.66;75.14;98514.31;5085650;28;20218;-57
2022/05/29 11:16:52;;;;;;;8.82;6.53;;;;;;;28.83;75.42;98511.28;5065593;28;20225;-57
2022/05/29 11:19:39;;;;;;;10.70;6.28;;;;;;;29.09;74.64;98505.47;5085500;28;20329;-58
2022/05/29 11:22:22;;;;;;;12.68;5.90;;;;;;;29.14;73.85;98496.88;5084012;28;20213;-58
2022/05/29 11:25:13;;;;;;;14.93;6.90;;;;;;;29.07;73.01;98512.84;5086713;28;20219;-57
2022/05/29 11:27:53;;;;;;;14.20;6.45;;;;;;;29.01;72.34;98486.06;5085988;28;20372;-59
2022/05/29 11:30:27;;;;;;;9.88;5.55;;;;;;;29.02;74.02;98499.22;5090565;28;20205;-59
2022/05/29 11:33:09;;;;;;;8.38;5.55;;;;;;;28.84;75.13;98480.06;5092506;28;20191;-59
2022/05/29 11:35:53;;;;;;;10.20;6.20;;;;;;;29.11;75.75;98476.72;5092621;28;20294;-58
2022/05/29 11:38:43;;;;;;;11.93;6.00;;;;;;;29.06;75.86;98478.28;5090326;28;20679;-58
2022/05/29 11:41:14;;;;;;;13.50;6.47;;;;;;;28.86;76.38;98468.19;5091981;28;20648;-60
2022/05/29 11:43:50;;;;;;;11.52;6.60;;;;;;;28.81;77.36;98475.09;5090601;28;20717;-59
2022/05/29 11:52:11;;;;;;;10.05;6.53;;;;;;;28.96;75.90;98467.91;5079283;28;20278;-59
2022/05/29 11:54:46;;;;;;;9.90;6.35;;;;;;;28.94;75.68;98432.53;5092451;28;20225;-59
2022/05/29 11:57:19;;;;;;;10.70;6.40;;;;;;;28.80;76.31;98414.69;5092475;28;20860;-59
2022/05/29 11:59:53;;;;;;;14.38;6.68;;;;;;;28.79;76.10;98432.53;5092447;28;20191;-57
2022/05/29 12:02:27;;;;;;;8.73;6.68;;;;;;;28.90;77.66;98418.72;5090046;28;20663;-59
2022/05/29 12:05:00;;;;;;;13.23;6.90;;;;;;;29.00;78.25;98417.63;5092408;28;20198;-57
2022/05/29 12:07:33;;;;;;;19.17;6.93;;;;;;;29.18;77.86;98426.84;5092489;28;20652;-59
2022/05/29 12:10:05;;;;;;;11.80;6.32;;;;;;;29.22;78.39;98414.78;5089885;28;20199;-58
2022/05/29 12:12:39;;;;;;;14.40;6.10;;;;;;;29.34;76.94;98412.44;5092194;28;20191;-59
2022/05/29 12:15:11;;;;;;;18.58;6.35;;;;;;;29.34;75.79;98395.56;5090206;28;20195;-57